Andrews AFB, Maryland
Current Conditions -  °F | °C
As of 3:58 PM on Saturday 25 Oct 2014 (Local Time) from KADW Reporting Station
Clear Clear  
Wind Chill: 71°   Ceiling: Unl
Heat Index: 71°   Visibility: 10mi
Dew Point: 39°   Wind: 12mph
Humidity: 32%   Direction: 250°WSW
Pressure: 29.8"   Gusts: NA
Location:  38.8°N, 76.87°W
Report Text: KADW 251958Z AUTO 25010KT 10SM CLR 21/04 A2980 RMK AO2 SLP097 T02140039 $
Loading
Personal Weather Stations






























Interactive Weather Map New forecast layout! Learn more

10-Day Weather Forecast

Advertisements
Track Severe Weather on mobile